sensor_id;sensor_type;location;lat;lon;timestamp;temperature;humidity
43561;DHT22;32305;46.410;17.394;2022-10-22T00:00:33;23.40;42.50
43561;DHT22;32305;46.410;17.394;2022-10-22T00:03:00;23.40;42.50
43561;DHT22;32305;46.410;17.394;2022-10-22T00:05:27;23.40;42.40
43561;DHT22;32305;46.410;17.394;2022-10-22T00:07:54;23.40;42.40
43561;DHT22;32305;46.410;17.394;2022-10-22T00:10:21;23.40;42.40
43561;DHT22;32305;46.410;17.394;2022-10-22T00:12:49;23.40;42.40
43561;DHT22;32305;46.410;17.394;2022-10-22T00:15:16;23.40;42.40
43561;DHT22;32305;46.410;17.394;2022-10-22T00:17:43;23.40;42.40
43561;DHT22;32305;46.410;17.394;2022-10-22T00:20:10;23.40;42.40
43561;DHT22;32305;46.410;17.394;2022-10-22T00:22:37;23.40;42.40
43561;DHT22;32305;46.410;17.394;2022-10-22T00:25:04;23.40;42.40
43561;DHT22;32305;46.410;17.394;2022-10-22T00:27:32;23.40;42.40
43561;DHT22;32305;46.410;17.394;2022-10-22T00:29:59;23.40;42.40
43561;DHT22;32305;46.410;17.394;2022-10-22T00:32:26;23.40;42.40
43561;DHT22;32305;46.410;17.394;2022-10-22T00:34:53;23.40;42.40
43561;DHT22;32305;46.410;17.394;2022-10-22T00:37:20;23.40;42.40
43561;DHT22;32305;46.410;17.394;2022-10-22T00:39:48;23.40;42.40
43561;DHT22;32305;46.410;17.394;2022-10-22T00:42:20;23.40;42.40
43561;DHT22;32305;46.410;17.394;2022-10-22T00:45:15;23.40;42.40
43561;DHT22;32305;46.410;17.394;2022-10-22T00:48:03;23.40;42.40
43561;DHT22;32305;46.410;17.394;2022-10-22T00:50:49;23.40;42.50
43561;DHT22;32305;46.410;17.394;2022-10-22T00:53:21;23.40;42.40
43561;DHT22;32305;46.410;17.394;2022-10-22T00:55:51;23.40;42.50
43561;DHT22;32305;46.410;17.394;2022-10-22T00:58:22;23.40;42.50
43561;DHT22;32305;46.410;17.394;2022-10-22T01:00:49;23.30;42.40
43561;DHT22;32305;46.410;17.394;2022-10-22T01:03:16;23.40;42.50
43561;DHT22;32305;46.410;17.394;2022-10-22T01:05:55;23.30;42.40
43561;DHT22;32305;46.410;17.394;2022-10-22T01:08:45;23.30;42.50
43561;DHT22;32305;46.410;17.394;2022-10-22T01:11:23;23.30;42.40
43561;DHT22;32305;46.410;17.394;2022-10-22T01:14:03;23.30;42.50
43561;DHT22;32305;46.410;17.394;2022-10-22T01:16:47;23.30;42.50
43561;DHT22;32305;46.410;17.394;2022-10-22T01:19:35;23.40;42.60
43561;DHT22;32305;46.410;17.394;2022-10-22T01:22:30;23.30;42.60
43561;DHT22;32305;46.410;17.394;2022-10-22T01:25:20;23.40;42.70
43561;DHT22;32305;46.410;17.394;2022-10-22T01:28:17;23.30;42.60
43561;DHT22;32305;46.410;17.394;2022-10-22T01:30:49;23.40;42.60
43561;DHT22;32305;46.410;17.394;2022-10-22T01:33:20;23.40;42.60
43561;DHT22;32305;46.410;17.394;2022-10-22T01:35:49;23.40;42.50
43561;DHT22;32305;46.410;17.394;2022-10-22T01:38:19;23.40;42.50
43561;DHT22;32305;46.410;17.394;2022-10-22T01:40:47;23.40;42.50
43561;DHT22;32305;46.410;17.394;2022-10-22T01:43:15;23.40;42.50
43561;DHT22;32305;46.410;17.394;2022-10-22T01:45:56;23.40;42.50
43561;DHT22;32305;46.410;17.394;2022-10-22T01:48:57;23.40;42.50
43561;DHT22;32305;46.410;17.394;2022-10-22T01:51:48;23.40;42.50
43561;DHT22;32305;46.410;17.394;2022-10-22T01:57:42;23.40;42.50
43561;DHT22;32305;46.410;17.394;2022-10-22T02:00:13;23.40;42.50
43561;DHT22;32305;46.410;17.394;2022-10-22T02:02:59;23.40;42.50
43561;DHT22;32305;46.410;17.394;2022-10-22T02:05:45;23.40;42.50
43561;DHT22;32305;46.410;17.394;2022-10-22T02:08:27;23.40;42.50
43561;DHT22;32305;46.410;17.394;2022-10-22T02:10:56;23.40;42.60
43561;DHT22;32305;46.410;17.394;2022-10-22T02:13:27;23.40;42.50
43561;DHT22;32305;46.410;17.394;2022-10-22T02:15:57;23.40;42.50
43561;DHT22;32305;46.410;17.394;2022-10-22T02:18:27;23.30;42.50
43561;DHT22;32305;46.410;17.394;2022-10-22T02:20:56;23.40;42.60
43561;DHT22;32305;46.410;17.394;2022-10-22T02:23:25;23.40;42.60
43561;DHT22;32305;46.410;17.394;2022-10-22T02:26:03;23.40;42.60
43561;DHT22;32305;46.410;17.394;2022-10-22T02:28:43;23.30;42.50
43561;DHT22;32305;46.410;17.394;2022-10-22T02:31:21;23.40;42.60
43561;DHT22;32305;46.410;17.394;2022-10-22T02:33:52;23.40;42.60
43561;DHT22;32305;46.410;17.394;2022-10-22T02:36:21;23.40;42.60
43561;DHT22;32305;46.410;17.394;2022-10-22T02:38:50;23.40;42.60
43561;DHT22;32305;46.410;17.394;2022-10-22T02:41:18;23.40;42.60
43561;DHT22;32305;46.410;17.394;2022-10-22T02:43:50;23.40;42.60
43561;DHT22;32305;46.410;17.394;2022-10-22T02:46:19;23.30;42.60
43561;DHT22;32305;46.410;17.394;2022-10-22T02:48:46;23.30;42.60
43561;DHT22;32305;46.410;17.394;2022-10-22T02:51:13;23.30;42.70
43561;DHT22;32305;46.410;17.394;2022-10-22T02:53:41;23.30;42.70
43561;DHT22;32305;46.410;17.394;2022-10-22T02:56:08;23.30;42.70
43561;DHT22;32305;46.410;17.394;2022-10-22T02:58:35;23.30;42.60
43561;DHT22;32305;46.410;17.394;2022-10-22T03:01:03;23.40;42.70
43561;DHT22;32305;46.410;17.394;2022-10-22T03:03:30;23.40;42.70
43561;DHT22;32305;46.410;17.394;2022-10-22T03:05:57;23.40;42.60
43561;DHT22;32305;46.410;17.394;2022-10-22T03:08:24;23.40;42.60
43561;DHT22;32305;46.410;17.394;2022-10-22T03:10:51;23.40;42.60
43561;DHT22;32305;46.410;17.394;2022-10-22T03:13:18;23.40;42.60
43561;DHT22;32305;46.410;17.394;2022-10-22T03:15:48;23.40;42.60
43561;DHT22;32305;46.410;17.394;2022-10-22T03:18:15;23.40;42.60
43561;DHT22;32305;46.410;17.394;2022-10-22T03:20:42;23.40;42.60
43561;DHT22;32305;46.410;17.394;2022-10-22T03:23:11;23.40;42.60
43561;DHT22;32305;46.410;17.394;2022-10-22T03:25:42;23.40;42.60
43561;DHT22;32305;46.410;17.394;2022-10-22T03:28:12;23.40;42.60
43561;DHT22;32305;46.410;17.394;2022-10-22T03:30:40;23.40;42.60
43561;DHT22;32305;46.410;17.394;2022-10-22T03:33:07;23.40;42.60
43561;DHT22;32305;46.410;17.394;2022-10-22T03:35:39;23.40;42.60
43561;DHT22;32305;46.410;17.394;2022-10-22T03:38:07;23.40;42.60
43561;DHT22;32305;46.410;17.394;2022-10-22T03:40:35;23.40;42.60
43561;DHT22;32305;46.410;17.394;2022-10-22T03:43:02;23.40;42.60
43561;DHT22;32305;46.410;17.394;2022-10-22T03:45:29;23.40;42.60
43561;DHT22;32305;46.410;17.394;2022-10-22T03:47:56;23.40;42.60
43561;DHT22;32305;46.410;17.394;2022-10-22T03:50:23;23.40;42.60
43561;DHT22;32305;46.410;17.394;2022-10-22T03:52:50;23.40;42.60
43561;DHT22;32305;46.410;17.394;2022-10-22T03:55:19;23.40;42.70
43561;DHT22;32305;46.410;17.394;2022-10-22T03:57:46;23.40;42.60
43561;DHT22;32305;46.410;17.394;2022-10-22T04:00:13;23.40;42.60
43561;DHT22;32305;46.410;17.394;2022-10-22T04:02:40;23.40;42.60
43561;DHT22;32305;46.410;17.394;2022-10-22T04:05:07;23.30;42.60
43561;DHT22;32305;46.410;17.394;2022-10-22T04:07:35;23.40;42.70
43561;DHT22;32305;46.410;17.394;2022-10-22T04:10:02;23.40;42.70
43561;DHT22;32305;46.410;17.394;2022-10-22T04:12:29;23.40;42.70
43561;DHT22;32305;46.410;17.394;2022-10-22T04:14:56;23.30;42.70
43561;DHT22;32305;46.410;17.394;2022-10-22T04:17:23;23.40;42.80
43561;DHT22;32305;46.410;17.394;2022-10-22T04:19:50;23.30;42.70
43561;DHT22;32305;46.410;17.394;2022-10-22T04:22:17;23.30;42.80
43561;DHT22;32305;46.410;17.394;2022-10-22T04:24:44;23.30;42.80
43561;DHT22;32305;46.410;17.394;2022-10-22T04:27:12;23.30;42.80
43561;DHT22;32305;46.410;17.394;2022-10-22T04:29:39;23.30;42.80
43561;DHT22;32305;46.410;17.394;2022-10-22T04:32:06;23.30;42.70
43561;DHT22;32305;46.410;17.394;2022-10-22T04:34:33;23.30;42.70
43561;DHT22;32305;46.410;17.394;2022-10-22T04:37:00;23.40;42.70
43561;DHT22;32305;46.410;17.394;2022-10-22T04:39:27;23.40;42.60
43561;DHT22;32305;46.410;17.394;2022-10-22T04:41:54;23.40;42.60
43561;DHT22;32305;46.410;17.394;2022-10-22T04:44:21;23.40;42.50
43561;DHT22;32305;46.410;17.394;2022-10-22T04:46:49;23.40;42.50
43561;DHT22;32305;46.410;17.394;2022-10-22T04:49:16;23.40;42.50
43561;DHT22;32305;46.410;17.394;2022-10-22T04:51:44;23.40;42.40
43561;DHT22;32305;46.410;17.394;2022-10-22T04:54:11;23.40;42.40
43561;DHT22;32305;46.410;17.394;2022-10-22T04:56:40;23.40;42.40
43561;DHT22;32305;46.410;17.394;2022-10-22T04:59:09;23.30;42.90
43561;DHT22;32305;46.410;17.394;2022-10-22T05:01:41;23.30;42.40
43561;DHT22;32305;46.410;17.394;2022-10-22T05:04:14;23.30;42.40
43561;DHT22;32305;46.410;17.394;2022-10-22T05:06:42;23.30;42.40
43561;DHT22;32305;46.410;17.394;2022-10-22T05:09:13;23.30;42.90
43561;DHT22;32305;46.410;17.394;2022-10-22T05:11:41;23.30;42.40
43561;DHT22;32305;46.410;17.394;2022-10-22T05:14:11;23.30;42.40
43561;DHT22;32305;46.410;17.394;2022-10-22T05:16:38;23.30;42.40
43561;DHT22;32305;46.410;17.394;2022-10-22T05:19:06;23.30;42.40
43561;DHT22;32305;46.410;17.394;2022-10-22T05:21:34;23.30;42.40
43561;DHT22;32305;46.410;17.394;2022-10-22T05:24:01;23.30;42.40
43561;DHT22;32305;46.410;17.394;2022-10-22T05:26:29;23.30;42.30
43561;DHT22;32305;46.410;17.394;2022-10-22T05:28:56;23.30;42.40
43561;DHT22;32305;46.410;17.394;2022-10-22T05:31:24;23.20;42.30
43561;DHT22;32305;46.410;17.394;2022-10-22T05:33:51;23.30;42.30
43561;DHT22;32305;46.410;17.394;2022-10-22T05:36:20;23.30;42.30
43561;DHT22;32305;46.410;17.394;2022-10-22T05:38:48;23.30;42.30
43561;DHT22;32305;46.410;17.394;2022-10-22T05:41:19;23.30;42.30
43561;DHT22;32305;46.410;17.394;2022-10-22T05:43:46;23.30;42.30
43561;DHT22;32305;46.410;17.394;2022-10-22T05:46:18;23.30;42.20
43561;DHT22;32305;46.410;17.394;2022-10-22T05:48:50;23.30;42.20
43561;DHT22;32305;46.410;17.394;2022-10-22T05:51:18;23.30;42.10
43561;DHT22;32305;46.410;17.394;2022-10-22T05:53:45;23.30;42.10
43561;DHT22;32305;46.410;17.394;2022-10-22T05:56:15;23.30;42.00
43561;DHT22;32305;46.410;17.394;2022-10-22T05:58:43;23.30;42.00
43561;DHT22;32305;46.410;17.394;2022-10-22T06:01:17;23.30;42.00
43561;DHT22;32305;46.410;17.394;2022-10-22T06:03:45;23.30;42.00
43561;DHT22;32305;46.410;17.394;2022-10-22T06:06:30;23.40;42.00
43561;DHT22;32305;46.410;17.394;2022-10-22T06:09:08;23.40;42.00
43561;DHT22;32305;46.410;17.394;2022-10-22T06:11:37;23.40;42.00
43561;DHT22;32305;46.410;17.394;2022-10-22T06:14:04;23.40;41.90
43561;DHT22;32305;46.410;17.394;2022-10-22T06:16:31;23.40;41.90
43561;DHT22;32305;46.410;17.394;2022-10-22T06:18:59;23.40;41.90
43561;DHT22;32305;46.410;17.394;2022-10-22T06:21:28;23.40;41.80
43561;DHT22;32305;46.410;17.394;2022-10-22T06:23:57;23.40;41.80
43561;DHT22;32305;46.410;17.394;2022-10-22T06:26:25;23.40;41.80
43561;DHT22;32305;46.410;17.394;2022-10-22T06:28:52;23.40;41.80
43561;DHT22;32305;46.410;17.394;2022-10-22T06:31:21;23.40;41.80
43561;DHT22;32305;46.410;17.394;2022-10-22T06:33:48;23.40;41.70
43561;DHT22;32305;46.410;17.394;2022-10-22T06:36:17;23.40;41.70
43561;DHT22;32305;46.410;17.394;2022-10-22T06:38:44;23.40;41.70
43561;DHT22;32305;46.410;17.394;2022-10-22T06:41:13;23.40;41.60
43561;DHT22;32305;46.410;17.394;2022-10-22T06:43:43;23.40;41.60
43561;DHT22;32305;46.410;17.394;2022-10-22T06:46:15;23.40;41.50
43561;DHT22;32305;46.410;17.394;2022-10-22T06:48:51;23.50;41.50
43561;DHT22;32305;46.410;17.394;2022-10-22T06:51:19;23.50;41.60
43561;DHT22;32305;46.410;17.394;2022-10-22T06:53:47;23.50;41.50
43561;DHT22;32305;46.410;17.394;2022-10-22T06:56:16;23.50;41.40
43561;DHT22;32305;46.410;17.394;2022-10-22T06:58:46;23.50;41.30
43561;DHT22;32305;46.410;17.394;2022-10-22T07:01:15;23.60;41.40
43561;DHT22;32305;46.410;17.394;2022-10-22T07:03:43;23.60;41.40
43561;DHT22;32305;46.410;17.394;2022-10-22T07:06:12;23.60;41.30
43561;DHT22;32305;46.410;17.394;2022-10-22T07:08:40;23.60;41.30
43561;DHT22;32305;46.410;17.394;2022-10-22T07:11:14;23.60;41.20
43561;DHT22;32305;46.410;17.394;2022-10-22T07:13:42;23.60;41.20
43561;DHT22;32305;46.410;17.394;2022-10-22T07:16:10;23.70;41.10
43561;DHT22;32305;46.410;17.394;2022-10-22T07:18:37;23.70;41.10
43561;DHT22;32305;46.410;17.394;2022-10-22T07:21:06;23.70;41.10
43561;DHT22;32305;46.410;17.394;2022-10-22T07:23:33;23.70;41.00
43561;DHT22;32305;46.410;17.394;2022-10-22T07:26:01;23.80;41.00
43561;DHT22;32305;46.410;17.394;2022-10-22T07:28:29;23.70;41.00
43561;DHT22;32305;46.410;17.394;2022-10-22T07:30:56;23.80;41.10
43561;DHT22;32305;46.410;17.394;2022-10-22T07:33:23;23.80;41.00
43561;DHT22;32305;46.410;17.394;2022-10-22T07:35:50;23.90;41.00
43561;DHT22;32305;46.410;17.394;2022-10-22T07:38:22;23.90;40.90
43561;DHT22;32305;46.410;17.394;2022-10-22T07:40:49;23.90;40.80
43561;DHT22;32305;46.410;17.394;2022-10-22T07:43:16;24.00;40.80
43561;DHT22;32305;46.410;17.394;2022-10-22T07:45:44;24.00;40.70
43561;DHT22;32305;46.410;17.394;2022-10-22T07:48:12;24.00;40.60
43561;DHT22;32305;46.410;17.394;2022-10-22T07:50:39;24.10;40.50
43561;DHT22;32305;46.410;17.394;2022-10-22T07:53:06;24.10;40.50
43561;DHT22;32305;46.410;17.394;2022-10-22T07:55:34;24.10;40.40
43561;DHT22;32305;46.410;17.394;2022-10-22T07:58:01;24.10;40.30
43561;DHT22;32305;46.410;17.394;2022-10-22T08:00:28;24.10;40.20
43561;DHT22;32305;46.410;17.394;2022-10-22T08:02:55;24.20;40.20
43561;DHT22;32305;46.410;17.394;2022-10-22T08:05:22;24.20;40.20
43561;DHT22;32305;46.410;17.394;2022-10-22T08:07:49;24.20;40.10
43561;DHT22;32305;46.410;17.394;2022-10-22T08:10:17;24.30;40.00
43561;DHT22;32305;46.410;17.394;2022-10-22T08:12:44;24.30;39.90
43561;DHT22;32305;46.410;17.394;2022-10-22T08:15:11;24.30;39.80
43561;DHT22;32305;46.410;17.394;2022-10-22T08:17:38;24.30;39.60
43561;DHT22;32305;46.410;17.394;2022-10-22T08:20:06;24.40;39.60
43561;DHT22;32305;46.410;17.394;2022-10-22T08:22:33;24.40;39.50
43561;DHT22;32305;46.410;17.394;2022-10-22T08:25:00;24.50;39.40
43561;DHT22;32305;46.410;17.394;2022-10-22T08:27:27;24.50;39.80
43561;DHT22;32305;46.410;17.394;2022-10-22T08:29:54;24.50;39.20
43561;DHT22;32305;46.410;17.394;2022-10-22T08:32:22;24.50;39.10
43561;DHT22;32305;46.410;17.394;2022-10-22T08:34:49;24.50;39.00
43561;DHT22;32305;46.410;17.394;2022-10-22T08:37:16;24.50;38.90
43561;DHT22;32305;46.410;17.394;2022-10-22T08:39:44;24.50;39.40
43561;DHT22;32305;46.410;17.394;2022-10-22T08:45:17;24.60;38.90
43561;DHT22;32305;46.410;17.394;2022-10-22T08:48:12;24.60;38.80
43561;DHT22;32305;46.410;17.394;2022-10-22T08:50:51;24.60;38.90
43561;DHT22;32305;46.410;17.394;2022-10-22T08:53:27;24.70;38.80
43561;DHT22;32305;46.410;17.394;2022-10-22T08:55:56;24.70;38.70
43561;DHT22;32305;46.410;17.394;2022-10-22T08:58:43;24.70;38.70
43561;DHT22;32305;46.410;17.394;2022-10-22T09:01:13;24.70;38.70
43561;DHT22;32305;46.410;17.394;2022-10-22T09:03:50;24.70;38.40
43561;DHT22;32305;46.410;17.394;2022-10-22T09:06:26;24.80;38.40
43561;DHT22;32305;46.410;17.394;2022-10-22T09:08:56;24.80;38.30
43561;DHT22;32305;46.410;17.394;2022-10-22T09:11:36;24.90;38.30
43561;DHT22;32305;46.410;17.394;2022-10-22T09:14:04;24.90;38.10
43561;DHT22;32305;46.410;17.394;2022-10-22T09:17:01;24.90;38.10
43561;DHT22;32305;46.410;17.394;2022-10-22T09:19:41;24.90;38.00
43561;DHT22;32305;46.410;17.394;2022-10-22T09:22:45;24.90;38.20
43561;DHT22;32305;46.410;17.394;2022-10-22T09:25:25;24.90;37.90
43561;DHT22;32305;46.410;17.394;2022-10-22T09:27:52;24.90;38.00
43561;DHT22;32305;46.410;17.394;2022-10-22T09:30:27;24.90;37.90
43561;DHT22;32305;46.410;17.394;2022-10-22T09:33:16;24.90;37.90
43561;DHT22;32305;46.410;17.394;2022-10-22T09:35:55;25.00;37.90
43561;DHT22;32305;46.410;17.394;2022-10-22T09:38:28;25.00;37.90
43561;DHT22;32305;46.410;17.394;2022-10-22T09:40:58;25.00;37.90
43561;DHT22;32305;46.410;17.394;2022-10-22T09:43:26;25.00;38.00
43561;DHT22;32305;46.410;17.394;2022-10-22T09:45:59;25.00;37.90
43561;DHT22;32305;46.410;17.394;2022-10-22T09:48:33;24.90;37.90
43561;DHT22;32305;46.410;17.394;2022-10-22T09:51:21;25.00;37.90
43561;DHT22;32305;46.410;17.394;2022-10-22T09:53:57;25.00;37.90
43561;DHT22;32305;46.410;17.394;2022-10-22T09:56:28;25.00;38.00
43561;DHT22;32305;46.410;17.394;2022-10-22T09:58:59;25.00;38.00
43561;DHT22;32305;46.410;17.394;2022-10-22T10:01:33;25.10;38.00
43561;DHT22;32305;46.410;17.394;2022-10-22T10:04:05;25.00;38.00
43561;DHT22;32305;46.410;17.394;2022-10-22T10:06:37;25.10;38.10
43561;DHT22;32305;46.410;17.394;2022-10-22T10:09:16;25.10;38.10
43561;DHT22;32305;46.410;17.394;2022-10-22T10:12:07;25.10;38.20
43561;DHT22;32305;46.410;17.394;2022-10-22T10:23:59;25.10;38.20
43561;DHT22;32305;46.410;17.394;2022-10-22T10:26:44;25.20;38.30
43561;DHT22;32305;46.410;17.394;2022-10-22T10:32:43;25.20;38.30
43561;DHT22;32305;46.410;17.394;2022-10-22T10:35:31;25.20;38.20
43561;DHT22;32305;46.410;17.394;2022-10-22T10:38:20;25.20;38.30
43561;DHT22;32305;46.410;17.394;2022-10-22T10:41:20;25.20;38.30
43561;DHT22;32305;46.410;17.394;2022-10-22T10:44:14;25.20;38.20
43561;DHT22;32305;46.410;17.394;2022-10-22T10:49:53;25.20;38.20
43561;DHT22;32305;46.410;17.394;2022-10-22T10:52:40;25.20;38.20
43561;DHT22;32305;46.410;17.394;2022-10-22T10:55:30;25.30;38.20
43561;DHT22;32305;46.410;17.394;2022-10-22T10:58:20;25.30;38.20
43561;DHT22;32305;46.410;17.394;2022-10-22T11:00:55;25.30;38.20
43561;DHT22;32305;46.410;17.394;2022-10-22T11:03:45;25.30;38.20
43561;DHT22;32305;46.410;17.394;2022-10-22T11:06:19;25.30;38.20
43561;DHT22;32305;46.410;17.394;2022-10-22T11:08:56;25.40;38.30
43561;DHT22;32305;46.410;17.394;2022-10-22T11:11:33;25.30;38.20
43561;DHT22;32305;46.410;17.394;2022-10-22T11:14:09;25.40;38.30
43561;DHT22;32305;46.410;17.394;2022-10-22T11:17:00;25.40;38.30
43561;DHT22;32305;46.410;17.394;2022-10-22T11:19:59;25.40;38.30
43561;DHT22;32305;46.410;17.394;2022-10-22T11:22:35;25.30;38.30
43561;DHT22;32305;46.410;17.394;2022-10-22T11:25:15;25.30;38.30
43561;DHT22;32305;46.410;17.394;2022-10-22T11:28:04;25.30;38.40
43561;DHT22;32305;46.410;17.394;2022-10-22T11:30:38;25.20;38.40
43561;DHT22;32305;46.410;17.394;2022-10-22T11:33:13;25.20;38.40
43561;DHT22;32305;46.410;17.394;2022-10-22T11:35:43;25.30;38.60
43561;DHT22;32305;46.410;17.394;2022-10-22T11:38:17;25.30;38.60
43561;DHT22;32305;46.410;17.394;2022-10-22T11:40:51;25.30;38.60
43561;DHT22;32305;46.410;17.394;2022-10-22T11:43:32;25.30;38.60
43561;DHT22;32305;46.410;17.394;2022-10-22T11:46:24;25.30;38.50
43561;DHT22;32305;46.410;17.394;2022-10-22T11:49:16;25.40;38.60
43561;DHT22;32305;46.410;17.394;2022-10-22T11:51:44;25.40;38.60
43561;DHT22;32305;46.410;17.394;2022-10-22T11:54:40;25.40;38.60
43561;DHT22;32305;46.410;17.394;2022-10-22T11:57:25;25.40;38.60
43561;DHT22;32305;46.410;17.394;2022-10-22T11:59:57;25.40;38.60
43561;DHT22;32305;46.410;17.394;2022-10-22T12:02:37;25.40;38.60
43561;DHT22;32305;46.410;17.394;2022-10-22T12:05:32;25.40;38.60
43561;DHT22;32305;46.410;17.394;2022-10-22T12:08:21;25.40;38.60
43561;DHT22;32305;46.410;17.394;2022-10-22T12:11:12;25.40;38.50
43561;DHT22;32305;46.410;17.394;2022-10-22T12:14:25;25.50;38.70
43561;DHT22;32305;46.410;17.394;2022-10-22T12:17:04;25.50;38.70
43561;DHT22;32305;46.410;17.394;2022-10-22T12:19:42;25.40;38.70
43561;DHT22;32305;46.410;17.394;2022-10-22T12:22:27;25.50;38.80
43561;DHT22;32305;46.410;17.394;2022-10-22T12:24:58;25.50;38.90
43561;DHT22;32305;46.410;17.394;2022-10-22T12:27:38;25.40;38.90
43561;DHT22;32305;46.410;17.394;2022-10-22T12:30:18;25.40;39.10
43561;DHT22;32305;46.410;17.394;2022-10-22T12:32:45;25.40;39.20
43561;DHT22;32305;46.410;17.394;2022-10-22T12:35:19;25.30;39.20
43561;DHT22;32305;46.410;17.394;2022-10-22T12:38:02;25.30;39.40
43561;DHT22;32305;46.410;17.394;2022-10-22T12:40:34;25.30;39.60
43561;DHT22;32305;46.410;17.394;2022-10-22T12:43:10;25.20;39.60
43561;DHT22;32305;46.410;17.394;2022-10-22T12:45:38;25.20;39.70
43561;DHT22;32305;46.410;17.394;2022-10-22T12:48:14;25.20;39.80
43561;DHT22;32305;46.410;17.394;2022-10-22T12:50:48;25.10;39.80
43561;DHT22;32305;46.410;17.394;2022-10-22T12:53:23;25.10;39.90
43561;DHT22;32305;46.410;17.394;2022-10-22T12:55:53;25.10;40.00
43561;DHT22;32305;46.410;17.394;2022-10-22T12:58:45;25.10;40.20
43561;DHT22;32305;46.410;17.394;2022-10-22T13:01:15;25.10;40.30
43561;DHT22;32305;46.410;17.394;2022-10-22T13:03:47;25.00;40.30
43561;DHT22;32305;46.410;17.394;2022-10-22T13:06:24;25.00;40.30
43561;DHT22;32305;46.410;17.394;2022-10-22T13:09:05;25.00;40.20
43561;DHT22;32305;46.410;17.394;2022-10-22T13:11:37;25.00;40.10
43561;DHT22;32305;46.410;17.394;2022-10-22T13:14:28;25.00;40.20
43561;DHT22;32305;46.410;17.394;2022-10-22T13:17:04;25.00;40.30
43561;DHT22;32305;46.410;17.394;2022-10-22T13:19:38;25.00;40.40
43561;DHT22;32305;46.410;17.394;2022-10-22T13:22:24;25.00;40.50
43561;DHT22;32305;46.410;17.394;2022-10-22T13:24:52;25.00;40.50
43561;DHT22;32305;46.410;17.394;2022-10-22T13:27:19;24.90;40.60
43561;DHT22;32305;46.410;17.394;2022-10-22T13:29:46;24.90;40.70
43561;DHT22;32305;46.410;17.394;2022-10-22T13:32:30;24.90;41.10
43561;DHT22;32305;46.410;17.394;2022-10-22T13:34:59;24.90;41.10
43561;DHT22;32305;46.410;17.394;2022-10-22T13:37:29;24.90;41.20
43561;DHT22;32305;46.410;17.394;2022-10-22T13:39:56;24.90;41.40
43561;DHT22;32305;46.410;17.394;2022-10-22T13:42:23;24.90;41.50
43561;DHT22;32305;46.410;17.394;2022-10-22T13:44:50;24.90;41.70
43561;DHT22;32305;46.410;17.394;2022-10-22T13:47:25;24.80;41.80
43561;DHT22;32305;46.410;17.394;2022-10-22T13:49:55;24.80;41.90
43561;DHT22;32305;46.410;17.394;2022-10-22T13:52:35;24.80;42.00
43561;DHT22;32305;46.410;17.394;2022-10-22T13:55:20;24.80;42.20
43561;DHT22;32305;46.410;17.394;2022-10-22T13:57:48;24.80;42.40
43561;DHT22;32305;46.410;17.394;2022-10-22T14:00:18;24.70;42.40
43561;DHT22;32305;46.410;17.394;2022-10-22T14:02:47;24.70;42.60
43561;DHT22;32305;46.410;17.394;2022-10-22T14:05:16;24.70;42.60
43561;DHT22;32305;46.410;17.394;2022-10-22T14:07:44;24.70;42.50
43561;DHT22;32305;46.410;17.394;2022-10-22T14:10:22;24.70;42.40
43561;DHT22;32305;46.410;17.394;2022-10-22T14:12:50;24.70;42.40
43561;DHT22;32305;46.410;17.394;2022-10-22T14:15:23;24.70;42.40
43561;DHT22;32305;46.410;17.394;2022-10-22T14:17:56;24.70;42.60
43561;DHT22;32305;46.410;17.394;2022-10-22T14:20:24;24.60;42.50
43561;DHT22;32305;46.410;17.394;2022-10-22T14:22:52;24.60;42.50
43561;DHT22;32305;46.410;17.394;2022-10-22T14:25:22;24.60;42.50
43561;DHT22;32305;46.410;17.394;2022-10-22T14:27:50;24.60;42.60
43561;DHT22;32305;46.410;17.394;2022-10-22T14:30:19;24.60;42.70
43561;DHT22;32305;46.410;17.394;2022-10-22T14:32:48;24.60;42.70
43561;DHT22;32305;46.410;17.394;2022-10-22T14:35:19;24.60;42.60
43561;DHT22;32305;46.410;17.394;2022-10-22T14:37:46;24.50;42.50
43561;DHT22;32305;46.410;17.394;2022-10-22T14:40:17;24.50;42.60
43561;DHT22;32305;46.410;17.394;2022-10-22T14:42:46;24.50;42.60
43561;DHT22;32305;46.410;17.394;2022-10-22T14:45:25;24.50;42.70
43561;DHT22;32305;46.410;17.394;2022-10-22T14:47:53;24.50;42.60
43561;DHT22;32305;46.410;17.394;2022-10-22T14:50:21;24.50;42.60
43561;DHT22;32305;46.410;17.394;2022-10-22T14:52:50;24.50;42.60
43561;DHT22;32305;46.410;17.394;2022-10-22T14:55:18;24.50;42.60
43561;DHT22;32305;46.410;17.394;2022-10-22T14:57:45;24.50;42.60
43561;DHT22;32305;46.410;17.394;2022-10-22T15:00:16;24.40;42.60
43561;DHT22;32305;46.410;17.394;2022-10-22T15:02:44;24.40;42.60
43561;DHT22;32305;46.410;17.394;2022-10-22T15:05:12;24.40;42.60
43561;DHT22;32305;46.410;17.394;2022-10-22T15:07:39;24.40;42.60
43561;DHT22;32305;46.410;17.394;2022-10-22T15:10:07;24.30;42.60
43561;DHT22;32305;46.410;17.394;2022-10-22T15:12:36;24.30;42.70
43561;DHT22;32305;46.410;17.394;2022-10-22T15:15:03;24.30;42.80
43561;DHT22;32305;46.410;17.394;2022-10-22T15:17:30;24.20;42.80
43561;DHT22;32305;46.410;17.394;2022-10-22T15:19:58;24.20;42.80
43561;DHT22;32305;46.410;17.394;2022-10-22T15:22:30;24.20;42.90
43561;DHT22;32305;46.410;17.394;2022-10-22T15:25:03;24.20;42.90
43561;DHT22;32305;46.410;17.394;2022-10-22T15:27:30;24.10;42.90
43561;DHT22;32305;46.410;17.394;2022-10-22T15:29:57;24.10;42.90
43561;DHT22;32305;46.410;17.394;2022-10-22T15:32:26;24.10;43.00
43561;DHT22;32305;46.410;17.394;2022-10-22T15:34:55;24.10;43.00
43561;DHT22;32305;46.410;17.394;2022-10-22T15:37:22;24.10;43.00
43561;DHT22;32305;46.410;17.394;2022-10-22T15:39:49;24.10;43.10
43561;DHT22;32305;46.410;17.394;2022-10-22T15:42:16;24.00;43.00
43561;DHT22;32305;46.410;17.394;2022-10-22T15:44:44;24.00;43.10
43561;DHT22;32305;46.410;17.394;2022-10-22T15:47:11;24.00;43.10
43561;DHT22;32305;46.410;17.394;2022-10-22T15:49:39;23.90;43.10
43561;DHT22;32305;46.410;17.394;2022-10-22T15:52:07;24.00;43.20
43561;DHT22;32305;46.410;17.394;2022-10-22T15:54:35;23.90;43.10
43561;DHT22;32305;46.410;17.394;2022-10-22T15:57:02;23.90;43.20
43561;DHT22;32305;46.410;17.394;2022-10-22T15:59:34;23.90;43.20
43561;DHT22;32305;46.410;17.394;2022-10-22T16:02:01;23.90;43.30
43561;DHT22;32305;46.410;17.394;2022-10-22T16:04:29;23.90;43.30
43561;DHT22;32305;46.410;17.394;2022-10-22T16:06:56;23.90;43.30
43561;DHT22;32305;46.410;17.394;2022-10-22T16:09:26;23.80;43.30